sensor_id;sensor_type;location;lat;lon;timestamp;P1;durP1;ratioP1;P2;durP2;ratioP2
21601;SDS011;10963;50.934;4.668;2022-12-07T00:01:39;26.67;;;15.33;;
21601;SDS011;10963;50.934;4.668;2022-12-07T00:04:11;22.13;;;13.83;;
21601;SDS011;10963;50.934;4.668;2022-12-07T00:06:40;24.67;;;14.30;;
21601;SDS011;10963;50.934;4.668;2022-12-07T00:09:10;26.13;;;14.87;;
21601;SDS011;10963;50.934;4.668;2022-12-07T00:11:41;27.03;;;15.30;;
21601;SDS011;10963;50.934;4.668;2022-12-07T00:14:09;24.47;;;14.87;;
21601;SDS011;10963;50.934;4.668;2022-12-07T00:16:40;24.57;;;14.57;;
21601;SDS011;10963;50.934;4.668;2022-12-07T00:19:07;25.23;;;14.87;;
21601;SDS011;10963;50.934;4.668;2022-12-07T00:21:37;26.70;;;16.33;;
21601;SDS011;10963;50.934;4.668;2022-12-07T00:24:03;28.50;;;15.77;;
21601;SDS011;10963;50.934;4.668;2022-12-07T00:26:36;25.60;;;15.23;;
21601;SDS011;10963;50.934;4.668;2022-12-07T00:29:11;25.00;;;15.77;;
21601;SDS011;10963;50.934;4.668;2022-12-07T00:31:42;23.60;;;15.63;;
21601;SDS011;10963;50.934;4.668;2022-12-07T00:34:14;26.23;;;15.13;;
21601;SDS011;10963;50.934;4.668;2022-12-07T00:36:42;26.07;;;15.80;;
21601;SDS011;10963;50.934;4.668;2022-12-07T00:39:08;24.77;;;15.87;;
21601;SDS011;10963;50.934;4.668;2022-12-07T00:41:34;28.40;;;16.43;;
21601;SDS011;10963;50.934;4.668;2022-12-07T00:44:00;26.93;;;16.17;;
21601;SDS011;10963;50.934;4.668;2022-12-07T00:46:25;26.27;;;16.43;;
21601;SDS011;10963;50.934;4.668;2022-12-07T00:48:52;29.77;;;17.20;;
21601;SDS011;10963;50.934;4.668;2022-12-07T00:51:22;28.70;;;17.40;;
21601;SDS011;10963;50.934;4.668;2022-12-07T00:53:51;31.57;;;15.77;;
21601;SDS011;10963;50.934;4.668;2022-12-07T00:56:19;31.80;;;17.63;;
21601;SDS011;10963;50.934;4.668;2022-12-07T00:58:53;27.97;;;17.17;;
21601;SDS011;10963;50.934;4.668;2022-12-07T01:01:21;31.67;;;17.50;;
21601;SDS011;10963;50.934;4.668;2022-12-07T01:03:47;33.47;;;17.27;;
21601;SDS011;10963;50.934;4.668;2022-12-07T01:06:16;30.23;;;17.77;;
21601;SDS011;10963;50.934;4.668;2022-12-07T01:08:44;27.33;;;16.53;;
21601;SDS011;10963;50.934;4.668;2022-12-07T01:11:12;29.83;;;17.70;;
21601;SDS011;10963;50.934;4.668;2022-12-07T01:13:43;30.53;;;18.37;;
21601;SDS011;10963;50.934;4.668;2022-12-07T01:16:13;26.80;;;17.17;;
21601;SDS011;10963;50.934;4.668;2022-12-07T01:18:48;34.63;;;17.80;;
21601;SDS011;10963;50.934;4.668;2022-12-07T01:21:20;29.53;;;16.83;;
21601;SDS011;10963;50.934;4.668;2022-12-07T01:23:50;31.40;;;17.10;;
21601;SDS011;10963;50.934;4.668;2022-12-07T01:26:18;25.80;;;16.53;;
21601;SDS011;10963;50.934;4.668;2022-12-07T01:28:53;29.47;;;18.40;;
21601;SDS011;10963;50.934;4.668;2022-12-07T01:31:21;31.03;;;17.77;;
21601;SDS011;10963;50.934;4.668;2022-12-07T01:33:49;31.57;;;18.20;;
21601;SDS011;10963;50.934;4.668;2022-12-07T01:36:20;27.40;;;17.57;;
21601;SDS011;10963;50.934;4.668;2022-12-07T01:38:53;33.50;;;19.10;;
21601;SDS011;10963;50.934;4.668;2022-12-07T01:41:21;32.00;;;18.00;;
21601;SDS011;10963;50.934;4.668;2022-12-07T01:46:40;30.50;;;17.23;;
21601;SDS011;10963;50.934;4.668;2022-12-07T01:49:09;31.00;;;18.07;;
21601;SDS011;10963;50.934;4.668;2022-12-07T01:51:40;32.07;;;18.17;;
21601;SDS011;10963;50.934;4.668;2022-12-07T01:54:07;30.90;;;18.93;;
21601;SDS011;10963;50.934;4.668;2022-12-07T01:56:37;32.37;;;18.03;;
21601;SDS011;10963;50.934;4.668;2022-12-07T01:59:08;31.97;;;18.87;;
21601;SDS011;10963;50.934;4.668;2022-12-07T02:01:35;37.43;;;20.20;;
21601;SDS011;10963;50.934;4.668;2022-12-07T02:04:03;34.07;;;18.30;;
21601;SDS011;10963;50.934;4.668;2022-12-07T02:06:30;29.10;;;18.70;;
21601;SDS011;10963;50.934;4.668;2022-12-07T02:09:00;28.63;;;18.93;;
21601;SDS011;10963;50.934;4.668;2022-12-07T02:11:25;31.33;;;17.90;;
21601;SDS011;10963;50.934;4.668;2022-12-07T02:13:53;34.93;;;18.60;;
21601;SDS011;10963;50.934;4.668;2022-12-07T02:32:07;29.13;;;18.07;;
21601;SDS011;10963;50.934;4.668;2022-12-07T02:34:39;32.00;;;18.27;;
21601;SDS011;10963;50.934;4.668;2022-12-07T02:37:24;31.70;;;18.87;;
21601;SDS011;10963;50.934;4.668;2022-12-07T02:40:01;31.93;;;18.33;;
21601;SDS011;10963;50.934;4.668;2022-12-07T02:42:40;35.57;;;19.20;;
21601;SDS011;10963;50.934;4.668;2022-12-07T02:45:12;34.17;;;18.93;;
21601;SDS011;10963;50.934;4.668;2022-12-07T02:47:44;33.40;;;19.63;;
21601;SDS011;10963;50.934;4.668;2022-12-07T02:50:17;34.17;;;19.20;;
21601;SDS011;10963;50.934;4.668;2022-12-07T02:52:46;35.67;;;19.40;;
21601;SDS011;10963;50.934;4.668;2022-12-07T02:55:13;32.90;;;19.17;;
21601;SDS011;10963;50.934;4.668;2022-12-07T02:57:54;33.67;;;18.93;;
21601;SDS011;10963;50.934;4.668;2022-12-07T03:00:27;28.57;;;18.53;;
21601;SDS011;10963;50.934;4.668;2022-12-07T03:02:55;29.70;;;18.13;;
21601;SDS011;10963;50.934;4.668;2022-12-07T03:10:59;34.80;;;18.00;;
21601;SDS011;10963;50.934;4.668;2022-12-07T03:13:47;32.23;;;17.93;;
21601;SDS011;10963;50.934;4.668;2022-12-07T03:16:41;32.73;;;17.70;;
21601;SDS011;10963;50.934;4.668;2022-12-07T03:19:30;31.60;;;18.73;;
21601;SDS011;10963;50.934;4.668;2022-12-07T03:22:02;32.43;;;18.33;;
21601;SDS011;10963;50.934;4.668;2022-12-07T03:24:35;32.47;;;19.00;;
21601;SDS011;10963;50.934;4.668;2022-12-07T03:27:09;32.20;;;17.33;;
21601;SDS011;10963;50.934;4.668;2022-12-07T03:29:43;32.27;;;18.03;;
21601;SDS011;10963;50.934;4.668;2022-12-07T03:32:20;27.03;;;17.40;;
21601;SDS011;10963;50.934;4.668;2022-12-07T03:34:55;25.83;;;16.37;;
21601;SDS011;10963;50.934;4.668;2022-12-07T03:37:31;29.37;;;17.17;;
21601;SDS011;10963;50.934;4.668;2022-12-07T03:40:11;29.07;;;15.80;;
21601;SDS011;10963;50.934;4.668;2022-12-07T03:42:47;28.27;;;16.57;;
21601;SDS011;10963;50.934;4.668;2022-12-07T03:45:16;29.30;;;16.47;;
21601;SDS011;10963;50.934;4.668;2022-12-07T03:47:48;24.97;;;15.27;;
21601;SDS011;10963;50.934;4.668;2022-12-07T03:53:22;28.77;;;16.40;;
21601;SDS011;10963;50.934;4.668;2022-12-07T03:56:04;27.80;;;15.77;;
21601;SDS011;10963;50.934;4.668;2022-12-07T03:58:31;27.53;;;16.00;;
21601;SDS011;10963;50.934;4.668;2022-12-07T04:00:58;24.57;;;14.93;;
21601;SDS011;10963;50.934;4.668;2022-12-07T04:03:26;26.33;;;16.07;;
21601;SDS011;10963;50.934;4.668;2022-12-07T04:05:52;29.43;;;14.80;;
21601;SDS011;10963;50.934;4.668;2022-12-07T04:08:21;25.67;;;15.07;;
21601;SDS011;10963;50.934;4.668;2022-12-07T04:10:46;25.90;;;14.53;;
21601;SDS011;10963;50.934;4.668;2022-12-07T04:13:12;29.43;;;14.80;;
21601;SDS011;10963;50.934;4.668;2022-12-07T04:15:40;19.53;;;13.53;;
21601;SDS011;10963;50.934;4.668;2022-12-07T04:18:06;25.83;;;15.10;;
21601;SDS011;10963;50.934;4.668;2022-12-07T04:20:34;29.20;;;15.73;;
21601;SDS011;10963;50.934;4.668;2022-12-07T04:23:02;26.60;;;15.10;;
21601;SDS011;10963;50.934;4.668;2022-12-07T04:25:32;24.40;;;14.37;;
21601;SDS011;10963;50.934;4.668;2022-12-07T04:27:58;26.13;;;15.37;;
21601;SDS011;10963;50.934;4.668;2022-12-07T04:30:24;27.07;;;15.33;;
21601;SDS011;10963;50.934;4.668;2022-12-07T04:32:49;22.90;;;13.63;;
21601;SDS011;10963;50.934;4.668;2022-12-07T04:35:15;21.73;;;13.93;;
21601;SDS011;10963;50.934;4.668;2022-12-07T04:37:43;25.13;;;15.00;;
21601;SDS011;10963;50.934;4.668;2022-12-07T04:40:09;26.70;;;14.83;;
21601;SDS011;10963;50.934;4.668;2022-12-07T04:42:36;22.20;;;14.23;;
21601;SDS011;10963;50.934;4.668;2022-12-07T04:45:05;22.70;;;13.27;;
21601;SDS011;10963;50.934;4.668;2022-12-07T04:47:31;25.77;;;14.80;;
21601;SDS011;10963;50.934;4.668;2022-12-07T04:49:59;27.40;;;14.60;;
21601;SDS011;10963;50.934;4.668;2022-12-07T04:52:25;26.30;;;15.53;;
21601;SDS011;10963;50.934;4.668;2022-12-07T04:54:53;24.80;;;14.43;;
21601;SDS011;10963;50.934;4.668;2022-12-07T04:57:19;30.00;;;15.07;;
21601;SDS011;10963;50.934;4.668;2022-12-07T04:59:45;27.23;;;15.53;;
21601;SDS011;10963;50.934;4.668;2022-12-07T05:02:10;27.93;;;15.23;;
21601;SDS011;10963;50.934;4.668;2022-12-07T05:04:36;28.63;;;14.57;;
21601;SDS011;10963;50.934;4.668;2022-12-07T05:07:02;26.23;;;14.43;;
21601;SDS011;10963;50.934;4.668;2022-12-07T05:09:30;31.60;;;14.97;;
21601;SDS011;10963;50.934;4.668;2022-12-07T05:11:55;26.50;;;14.87;;
21601;SDS011;10963;50.934;4.668;2022-12-07T05:14:23;28.63;;;14.87;;
21601;SDS011;10963;50.934;4.668;2022-12-07T05:16:49;30.53;;;15.20;;
21601;SDS011;10963;50.934;4.668;2022-12-07T05:19:16;31.37;;;15.30;;
21601;SDS011;10963;50.934;4.668;2022-12-07T05:21:43;24.70;;;15.60;;
21601;SDS011;10963;50.934;4.668;2022-12-07T05:24:12;35.87;;;15.37;;
21601;SDS011;10963;50.934;4.668;2022-12-07T05:26:41;30.10;;;15.73;;
21601;SDS011;10963;50.934;4.668;2022-12-07T05:29:07;26.17;;;15.07;;
21601;SDS011;10963;50.934;4.668;2022-12-07T05:31:36;26.40;;;15.47;;
21601;SDS011;10963;50.934;4.668;2022-12-07T05:34:01;34.33;;;17.30;;
21601;SDS011;10963;50.934;4.668;2022-12-07T05:36:31;27.73;;;16.40;;
21601;SDS011;10963;50.934;4.668;2022-12-07T05:38:57;24.40;;;15.30;;
21601;SDS011;10963;50.934;4.668;2022-12-07T05:41:23;30.63;;;15.63;;
21601;SDS011;10963;50.934;4.668;2022-12-07T05:44:10;25.53;;;16.50;;
21601;SDS011;10963;50.934;4.668;2022-12-07T05:46:36;29.40;;;15.30;;
21601;SDS011;10963;50.934;4.668;2022-12-07T05:49:02;31.00;;;15.57;;
21601;SDS011;10963;50.934;4.668;2022-12-07T05:51:28;32.17;;;15.63;;
21601;SDS011;10963;50.934;4.668;2022-12-07T05:53:56;34.97;;;17.03;;
21601;SDS011;10963;50.934;4.668;2022-12-07T05:56:25;30.27;;;16.87;;
21601;SDS011;10963;50.934;4.668;2022-12-07T05:58:51;27.67;;;16.40;;
21601;SDS011;10963;50.934;4.668;2022-12-07T06:01:40;30.93;;;16.20;;
21601;SDS011;10963;50.934;4.668;2022-12-07T06:04:06;27.17;;;14.67;;
21601;SDS011;10963;50.934;4.668;2022-12-07T06:06:33;24.60;;;14.87;;
21601;SDS011;10963;50.934;4.668;2022-12-07T06:08:59;29.30;;;16.77;;
21601;SDS011;10963;50.934;4.668;2022-12-07T06:11:25;31.30;;;15.03;;
21601;SDS011;10963;50.934;4.668;2022-12-07T06:14:11;29.40;;;15.43;;
21601;SDS011;10963;50.934;4.668;2022-12-07T06:16:39;31.97;;;16.30;;
21601;SDS011;10963;50.934;4.668;2022-12-07T06:19:09;26.97;;;15.60;;
21601;SDS011;10963;50.934;4.668;2022-12-07T06:21:37;26.00;;;15.53;;
21601;SDS011;10963;50.934;4.668;2022-12-07T06:24:06;24.40;;;15.10;;
21601;SDS011;10963;50.934;4.668;2022-12-07T06:26:33;26.77;;;15.53;;
21601;SDS011;10963;50.934;4.668;2022-12-07T06:29:01;25.60;;;14.43;;
21601;SDS011;10963;50.934;4.668;2022-12-07T06:31:29;24.83;;;14.53;;
21601;SDS011;10963;50.934;4.668;2022-12-07T06:34:03;23.67;;;14.93;;
21601;SDS011;10963;50.934;4.668;2022-12-07T06:36:32;24.40;;;14.07;;
21601;SDS011;10963;50.934;4.668;2022-12-07T06:39:01;34.03;;;15.90;;
21601;SDS011;10963;50.934;4.668;2022-12-07T06:41:27;20.53;;;14.10;;
21601;SDS011;10963;50.934;4.668;2022-12-07T06:43:56;26.67;;;14.00;;
21601;SDS011;10963;50.934;4.668;2022-12-07T06:46:22;29.73;;;14.67;;
21601;SDS011;10963;50.934;4.668;2022-12-07T06:48:48;26.80;;;15.13;;
21601;SDS011;10963;50.934;4.668;2022-12-07T06:51:22;23.10;;;14.20;;
21601;SDS011;10963;50.934;4.668;2022-12-07T06:53:50;21.63;;;14.03;;
21601;SDS011;10963;50.934;4.668;2022-12-07T06:56:18;28.03;;;14.80;;
21601;SDS011;10963;50.934;4.668;2022-12-07T06:58:47;20.87;;;13.77;;
21601;SDS011;10963;50.934;4.668;2022-12-07T07:01:18;22.53;;;14.60;;
21601;SDS011;10963;50.934;4.668;2022-12-07T07:03:46;28.83;;;15.33;;
21601;SDS011;10963;50.934;4.668;2022-12-07T07:06:14;27.00;;;14.80;;
21601;SDS011;10963;50.934;4.668;2022-12-07T07:08:43;25.73;;;15.10;;
21601;SDS011;10963;50.934;4.668;2022-12-07T07:11:09;32.70;;;16.97;;
21601;SDS011;10963;50.934;4.668;2022-12-07T07:13:35;26.20;;;15.43;;
21601;SDS011;10963;50.934;4.668;2022-12-07T07:16:04;25.90;;;15.60;;
21601;SDS011;10963;50.934;4.668;2022-12-07T07:18:35;23.53;;;14.63;;
21601;SDS011;10963;50.934;4.668;2022-12-07T07:21:02;27.57;;;15.37;;
21601;SDS011;10963;50.934;4.668;2022-12-07T07:23:28;29.87;;;14.83;;
21601;SDS011;10963;50.934;4.668;2022-12-07T07:25:54;19.20;;;13.17;;
21601;SDS011;10963;50.934;4.668;2022-12-07T07:28:20;24.97;;;13.40;;
21601;SDS011;10963;50.934;4.668;2022-12-07T07:30:50;21.87;;;13.80;;
21601;SDS011;10963;50.934;4.668;2022-12-07T07:33:18;25.60;;;12.97;;
21601;SDS011;10963;50.934;4.668;2022-12-07T07:35:43;25.13;;;13.83;;
21601;SDS011;10963;50.934;4.668;2022-12-07T07:38:11;23.10;;;12.67;;
21601;SDS011;10963;50.934;4.668;2022-12-07T07:40:39;24.37;;;12.80;;
21601;SDS011;10963;50.934;4.668;2022-12-07T07:43:10;26.03;;;13.07;;
21601;SDS011;10963;50.934;4.668;2022-12-07T07:45:35;20.87;;;12.27;;
21601;SDS011;10963;50.934;4.668;2022-12-07T07:48:02;21.90;;;12.43;;
21601;SDS011;10963;50.934;4.668;2022-12-07T07:50:27;21.20;;;12.50;;
21601;SDS011;10963;50.934;4.668;2022-12-07T07:52:53;22.03;;;12.00;;
21601;SDS011;10963;50.934;4.668;2022-12-07T07:55:21;18.63;;;12.03;;
21601;SDS011;10963;50.934;4.668;2022-12-07T07:57:47;19.97;;;11.60;;
21601;SDS011;10963;50.934;4.668;2022-12-07T08:00:16;20.23;;;11.83;;
21601;SDS011;10963;50.934;4.668;2022-12-07T08:02:43;21.43;;;11.50;;
21601;SDS011;10963;50.934;4.668;2022-12-07T08:05:12;23.00;;;12.00;;
21601;SDS011;10963;50.934;4.668;2022-12-07T08:07:38;23.10;;;11.77;;
21601;SDS011;10963;50.934;4.668;2022-12-07T08:10:07;24.40;;;12.77;;
21601;SDS011;10963;50.934;4.668;2022-12-07T08:12:39;25.27;;;13.27;;
21601;SDS011;10963;50.934;4.668;2022-12-07T08:15:27;26.57;;;13.20;;
21601;SDS011;10963;50.934;4.668;2022-12-07T08:17:53;26.80;;;13.23;;
21601;SDS011;10963;50.934;4.668;2022-12-07T08:20:19;24.93;;;12.40;;
21601;SDS011;10963;50.934;4.668;2022-12-07T08:22:46;24.50;;;12.60;;
21601;SDS011;10963;50.934;4.668;2022-12-07T08:25:14;24.83;;;13.40;;
21601;SDS011;10963;50.934;4.668;2022-12-07T08:27:40;25.87;;;13.90;;
21601;SDS011;10963;50.934;4.668;2022-12-07T08:30:08;25.60;;;13.87;;
21601;SDS011;10963;50.934;4.668;2022-12-07T08:32:37;25.03;;;14.13;;
21601;SDS011;10963;50.934;4.668;2022-12-07T08:35:05;24.00;;;14.17;;
21601;SDS011;10963;50.934;4.668;2022-12-07T08:37:31;28.97;;;14.07;;
21601;SDS011;10963;50.934;4.668;2022-12-07T08:39:57;24.67;;;13.93;;
21601;SDS011;10963;50.934;4.668;2022-12-07T08:42:23;25.60;;;14.57;;
21601;SDS011;10963;50.934;4.668;2022-12-07T08:44:54;21.80;;;12.93;;
21601;SDS011;10963;50.934;4.668;2022-12-07T08:47:25;26.00;;;14.20;;
21601;SDS011;10963;50.934;4.668;2022-12-07T08:49:51;29.93;;;14.53;;
21601;SDS011;10963;50.934;4.668;2022-12-07T08:52:20;26.60;;;14.83;;
21601;SDS011;10963;50.934;4.668;2022-12-07T08:54:51;26.03;;;14.87;;
21601;SDS011;10963;50.934;4.668;2022-12-07T08:57:22;28.40;;;15.73;;
21601;SDS011;10963;50.934;4.668;2022-12-07T08:59:48;26.67;;;15.27;;
21601;SDS011;10963;50.934;4.668;2022-12-07T09:02:16;27.13;;;14.97;;
21601;SDS011;10963;50.934;4.668;2022-12-07T09:04:41;35.30;;;16.37;;
21601;SDS011;10963;50.934;4.668;2022-12-07T09:07:10;38.67;;;15.07;;
21601;SDS011;10963;50.934;4.668;2022-12-07T09:09:35;22.17;;;13.47;;
21601;SDS011;10963;50.934;4.668;2022-12-07T09:12:01;28.73;;;14.43;;
21601;SDS011;10963;50.934;4.668;2022-12-07T09:14:27;25.20;;;15.37;;
21601;SDS011;10963;50.934;4.668;2022-12-07T09:16:57;31.27;;;15.20;;
21601;SDS011;10963;50.934;4.668;2022-12-07T09:19:31;26.90;;;15.63;;
21601;SDS011;10963;50.934;4.668;2022-12-07T09:21:56;25.77;;;15.57;;
21601;SDS011;10963;50.934;4.668;2022-12-07T09:24:25;22.27;;;14.50;;
21601;SDS011;10963;50.934;4.668;2022-12-07T09:26:50;26.43;;;15.33;;
21601;SDS011;10963;50.934;4.668;2022-12-07T09:29:16;27.80;;;13.87;;
21601;SDS011;10963;50.934;4.668;2022-12-07T09:31:42;30.43;;;15.60;;
21601;SDS011;10963;50.934;4.668;2022-12-07T09:34:08;26.57;;;15.50;;
21601;SDS011;10963;50.934;4.668;2022-12-07T09:36:33;26.87;;;14.83;;
21601;SDS011;10963;50.934;4.668;2022-12-07T09:39:02;23.60;;;14.67;;
21601;SDS011;10963;50.934;4.668;2022-12-07T09:41:29;25.83;;;15.80;;
21601;SDS011;10963;50.934;4.668;2022-12-07T09:44:06;23.90;;;15.13;;
21601;SDS011;10963;50.934;4.668;2022-12-07T09:46:44;28.33;;;14.87;;
21601;SDS011;10963;50.934;4.668;2022-12-07T09:49:19;29.37;;;13.37;;
21601;SDS011;10963;50.934;4.668;2022-12-07T09:51:58;19.97;;;13.00;;
21601;SDS011;10963;50.934;4.668;2022-12-07T09:54:44;25.17;;;12.57;;
21601;SDS011;10963;50.934;4.668;2022-12-07T09:57:15;27.80;;;13.20;;
21601;SDS011;10963;50.934;4.668;2022-12-07T09:59:52;28.00;;;13.23;;
21601;SDS011;10963;50.934;4.668;2022-12-07T10:02:37;26.47;;;12.17;;
21601;SDS011;10963;50.934;4.668;2022-12-07T10:05:10;21.77;;;11.43;;
21601;SDS011;10963;50.934;4.668;2022-12-07T10:07:40;26.93;;;11.63;;
21601;SDS011;10963;50.934;4.668;2022-12-07T10:10:09;22.30;;;11.30;;
21601;SDS011;10963;50.934;4.668;2022-12-07T10:13:02;19.13;;;11.40;;
21601;SDS011;10963;50.934;4.668;2022-12-07T10:20:59;19.10;;;10.93;;
21601;SDS011;10963;50.934;4.668;2022-12-07T10:23:37;20.30;;;10.63;;
21601;SDS011;10963;50.934;4.668;2022-12-07T10:28:57;18.80;;;10.53;;
21601;SDS011;10963;50.934;4.668;2022-12-07T10:31:25;19.47;;;10.27;;
21601;SDS011;10963;50.934;4.668;2022-12-07T10:39:10;17.13;;;9.83;;
21601;SDS011;10963;50.934;4.668;2022-12-07T10:42:00;16.73;;;9.53;;
21601;SDS011;10963;50.934;4.668;2022-12-07T10:44:32;18.17;;;9.17;;
21601;SDS011;10963;50.934;4.668;2022-12-07T10:58:14;18.20;;;9.23;;
21601;SDS011;10963;50.934;4.668;2022-12-07T11:11:53;16.27;;;8.97;;
21601;SDS011;10963;50.934;4.668;2022-12-07T11:14:39;14.17;;;8.70;;
21601;SDS011;10963;50.934;4.668;2022-12-07T11:35:08;15.00;;;8.37;;
21601;SDS011;10963;50.934;4.668;2022-12-07T11:37:19;15.37;;;8.20;;
21601;SDS011;10963;50.934;4.668;2022-12-07T11:39:51;19.97;;;9.10;;
21601;SDS011;10963;50.934;4.668;2022-12-07T11:42:22;12.63;;;8.07;;
21601;SDS011;10963;50.934;4.668;2022-12-07T11:47:38;13.13;;;8.23;;
21601;SDS011;10963;50.934;4.668;2022-12-07T11:50:25;19.80;;;9.20;;
21601;SDS011;10963;50.934;4.668;2022-12-07T11:53:11;16.43;;;9.03;;
21601;SDS011;10963;50.934;4.668;2022-12-07T11:55:49;14.53;;;8.63;;
21601;SDS011;10963;50.934;4.668;2022-12-07T12:06:31;18.10;;;7.80;;
21601;SDS011;10963;50.934;4.668;2022-12-07T12:09:19;13.93;;;8.17;;
21601;SDS011;10963;50.934;4.668;2022-12-07T12:26:26;11.37;;;6.47;;
21601;SDS011;10963;50.934;4.668;2022-12-07T12:28:58;9.93;;;5.63;;
21601;SDS011;10963;50.934;4.668;2022-12-07T12:31:31;10.43;;;5.80;;
21601;SDS011;10963;50.934;4.668;2022-12-07T12:34:02;11.30;;;6.47;;
21601;SDS011;10963;50.934;4.668;2022-12-07T12:36:48;12.27;;;6.40;;
21601;SDS011;10963;50.934;4.668;2022-12-07T12:39:19;14.63;;;6.77;;
21601;SDS011;10963;50.934;4.668;2022-12-07T12:51:57;11.57;;;5.87;;
21601;SDS011;10963;50.934;4.668;2022-12-07T12:54:26;10.37;;;5.43;;
21601;SDS011;10963;50.934;4.668;2022-12-07T13:10:33;10.03;;;5.73;;
21601;SDS011;10963;50.934;4.668;2022-12-07T13:31:44;9.20;;;4.20;;
21601;SDS011;10963;50.934;4.668;2022-12-07T13:34:27;9.37;;;4.50;;
21601;SDS011;10963;50.934;4.668;2022-12-07T13:40:00;9.43;;;4.20;;
21601;SDS011;10963;50.934;4.668;2022-12-07T13:42:41;10.53;;;4.00;;
21601;SDS011;10963;50.934;4.668;2022-12-07T13:45:20;8.67;;;4.17;;
21601;SDS011;10963;50.934;4.668;2022-12-07T13:48:14;9.27;;;3.57;;
21601;SDS011;10963;50.934;4.668;2022-12-07T13:50:55;5.77;;;3.30;;
21601;SDS011;10963;50.934;4.668;2022-12-07T13:53:26;6.67;;;3.67;;
21601;SDS011;10963;50.934;4.668;2022-12-07T13:55:55;7.90;;;4.27;;
21601;SDS011;10963;50.934;4.668;2022-12-07T13:58:25;8.80;;;4.00;;
21601;SDS011;10963;50.934;4.668;2022-12-07T14:00:58;8.83;;;3.63;;
21601;SDS011;10963;50.934;4.668;2022-12-07T14:03:29;7.57;;;3.23;;
21601;SDS011;10963;50.934;4.668;2022-12-07T14:06:05;6.57;;;3.10;;
21601;SDS011;10963;50.934;4.668;2022-12-07T14:08:33;7.30;;;3.20;;
21601;SDS011;10963;50.934;4.668;2022-12-07T14:10:59;7.73;;;2.80;;
21601;SDS011;10963;50.934;4.668;2022-12-07T14:15:54;6.53;;;2.43;;
21601;SDS011;10963;50.934;4.668;2022-12-07T14:18:26;4.23;;;2.23;;
21601;SDS011;10963;50.934;4.668;2022-12-07T14:23:32;7.83;;;2.70;;
21601;SDS011;10963;50.934;4.668;2022-12-07T14:26:40;6.53;;;2.97;;
21601;SDS011;10963;50.934;4.668;2022-12-07T14:28:49;7.33;;;3.53;;
21601;SDS011;10963;50.934;4.668;2022-12-07T14:31:16;4.73;;;3.00;;
21601;SDS011;10963;50.934;4.668;2022-12-07T14:33:44;7.13;;;3.70;;
21601;SDS011;10963;50.934;4.668;2022-12-07T14:36:13;4.40;;;3.60;;
21601;SDS011;10963;50.934;4.668;2022-12-07T14:38:40;5.93;;;4.27;;
21601;SDS011;10963;50.934;4.668;2022-12-07T14:41:17;8.43;;;4.87;;
21601;SDS011;10963;50.934;4.668;2022-12-07T14:44:09;12.47;;;5.93;;
21601;SDS011;10963;50.934;4.668;2022-12-07T14:46:36;8.10;;;4.10;;
21601;SDS011;10963;50.934;4.668;2022-12-07T14:49:04;9.17;;;3.93;;
21601;SDS011;10963;50.934;4.668;2022-12-07T14:51:32;6.77;;;5.23;;
21601;SDS011;10963;50.934;4.668;2022-12-07T14:54:04;8.87;;;5.63;;
21601;SDS011;10963;50.934;4.668;2022-12-07T14:56:31;11.23;;;6.20;;
21601;SDS011;10963;50.934;4.668;2022-12-07T14:58:57;11.27;;;5.83;;
21601;SDS011;10963;50.934;4.668;2022-12-07T15:01:22;9.80;;;6.60;;
21601;SDS011;10963;50.934;4.668;2022-12-07T15:03:48;10.97;;;6.73;;
21601;SDS011;10963;50.934;4.668;2022-12-07T15:06:19;7.83;;;5.80;;
21601;SDS011;10963;50.934;4.668;2022-12-07T15:08:47;7.70;;;6.10;;
21601;SDS011;10963;50.934;4.668;2022-12-07T15:11:16;13.97;;;6.40;;
21601;SDS011;10963;50.934;4.668;2022-12-07T15:13:42;6.77;;;5.73;;
21601;SDS011;10963;50.934;4.668;2022-12-07T15:16:27;8.27;;;5.70;;
21601;SDS011;10963;50.934;4.668;2022-12-07T15:18:53;7.43;;;5.20;;
21601;SDS011;10963;50.934;4.668;2022-12-07T15:21:19;10.47;;;5.37;;
21601;SDS011;10963;50.934;4.668;2022-12-07T15:23:46;6.20;;;4.43;;
21601;SDS011;10963;50.934;4.668;2022-12-07T15:26:14;11.17;;;5.77;;
21601;SDS011;10963;50.934;4.668;2022-12-07T15:28:43;6.17;;;5.10;;
21601;SDS011;10963;50.934;4.668;2022-12-07T15:31:12;6.67;;;5.63;;
21601;SDS011;10963;50.934;4.668;2022-12-07T15:33:44;7.37;;;5.53;;
21601;SDS011;10963;50.934;4.668;2022-12-07T15:36:17;6.30;;;4.67;;
21601;SDS011;10963;50.934;4.668;2022-12-07T15:38:45;6.13;;;4.83;;
21601;SDS011;10963;50.934;4.668;2022-12-07T15:41:11;6.87;;;4.77;;
21601;SDS011;10963;50.934;4.668;2022-12-07T15:43:37;7.37;;;5.03;;
21601;SDS011;10963;50.934;4.668;2022-12-07T15:46:21;6.97;;;4.50;;
21601;SDS011;10963;50.934;4.668;2022-12-07T15:48:46;6.87;;;4.70;;
21601;SDS011;10963;50.934;4.668;2022-12-07T15:51:12;8.80;;;4.77;;
21601;SDS011;10963;50.934;4.668;2022-12-07T15:53:38;10.33;;;5.27;;
21601;SDS011;10963;50.934;4.668;2022-12-07T15:56:06;7.10;;;4.50;;
21601;SDS011;10963;50.934;4.668;2022-12-07T15:58:34;6.40;;;4.53;;
21601;SDS011;10963;50.934;4.668;2022-12-07T16:00:59;9.63;;;4.73;;
21601;SDS011;10963;50.934;4.668;2022-12-07T16:03:29;9.07;;;4.60;;
21601;SDS011;10963;50.934;4.668;2022-12-07T16:05:57;9.77;;;4.60;;
21601;SDS011;10963;50.934;4.668;2022-12-07T16:08:26;7.33;;;4.13;;
21601;SDS011;10963;50.934;4.668;2022-12-07T16:10:54;5.53;;;3.97;;
21601;SDS011;10963;50.934;4.668;2022-12-07T16:13:20;9.37;;;4.63;;
21601;SDS011;10963;50.934;4.668;2022-12-07T16:15:46;10.50;;;4.63;;
21601;SDS011;10963;50.934;4.668;2022-12-07T16:18:15;7.93;;;4.37;;
21601;SDS011;10963;50.934;4.668;2022-12-07T16:20:43;8.47;;;4.60;;
21601;SDS011;10963;50.934;4.668;2022-12-07T16:23:14;10.47;;;4.23;;
21601;SDS011;10963;50.934;4.668;2022-12-07T16:25:41;9.20;;;4.23;;
21601;SDS011;10963;50.934;4.668;2022-12-07T16:28:10;10.27;;;4.00;;
21601;SDS011;10963;50.934;4.668;2022-12-07T16:30:36;10.47;;;4.73;;
21601;SDS011;10963;50.934;4.668;2022-12-07T16:33:01;10.17;;;3.70;;
21601;SDS011;10963;50.934;4.668;2022-12-07T16:35:28;10.03;;;4.07;;
21601;SDS011;10963;50.934;4.668;2022-12-07T16:37:53;8.63;;;3.83;;
21601;SDS011;10963;50.934;4.668;2022-12-07T16:40:22;9.37;;;5.20;;
21601;SDS011;10963;50.934;4.668;2022-12-07T16:42:50;9.23;;;3.97;;
21601;SDS011;10963;50.934;4.668;2022-12-07T16:45:19;8.90;;;3.87;;
21601;SDS011;10963;50.934;4.668;2022-12-07T16:47:45;8.73;;;4.60;;
21601;SDS011;10963;50.934;4.668;2022-12-07T16:50:11;6.03;;;4.00;;
21601;SDS011;10963;50.934;4.668;2022-12-07T16:52:36;7.67;;;4.47;;
21601;SDS011;10963;50.934;4.668;2022-12-07T16:55:03;10.83;;;4.97;;
21601;SDS011;10963;50.934;4.668;2022-12-07T16:57:29;8.37;;;4.90;;
21601;SDS011;10963;50.934;4.668;2022-12-07T16:59:56;7.70;;;4.10;;
21601;SDS011;10963;50.934;4.668;2022-12-07T17:02:24;8.07;;;4.40;;
21601;SDS011;10963;50.934;4.668;2022-12-07T17:04:50;6.60;;;4.20;;
21601;SDS011;10963;50.934;4.668;2022-12-07T17:07:17;11.40;;;4.30;;
21601;SDS011;10963;50.934;4.668;2022-12-07T17:09:45;9.90;;;3.93;;
21601;SDS011;10963;50.934;4.668;2022-12-07T17:12:11;9.40;;;4.43;;
21601;SDS011;10963;50.934;4.668;2022-12-07T17:14:39;9.93;;;4.67;;
21601;SDS011;10963;50.934;4.668;2022-12-07T17:17:23;8.37;;;4.50;;
21601;SDS011;10963;50.934;4.668;2022-12-07T17:19:49;12.00;;;5.60;;
21601;SDS011;10963;50.934;4.668;2022-12-07T17:22:17;8.53;;;5.20;;